Market Rasen, United Kingdom
Current Conditions -  °F | °C
As of 2:50 AM on Sunday 23 Nov 2014 (Local Time) from EGXP Reporting Station
Broken Clouds Broken Clouds  
Wind Chill:   Ceiling: 4200
Heat Index:   Visibility: 2.3mi
Dew Point:   Wind: 7mph
Humidity: 100%   Direction: 270°W
Pressure: 29.94"   Gusts: NA
Location:  53.39°N, 0.34°W
Report Text: EGXP 230250Z AUTO 27006KT 3700 // BKN042/// BKN070/// 08/08 Q1014
Loading
Personal Weather Stations






























Interactive Weather Map New forecast layout! Learn more

10-Day Weather Forecast

Advertisements
Track Severe Weather on mobile